Costa Mediterranea — IBCF — position and weather

sailwx.info

Track history (hours):
 
Tides and Currents Weather Stations Pressure Air Temp Water Temp Dewpoint Dewpoint Depression Visibility Wind Speed Wind Dir Waves Ship Positions

Costa Mediterranea

Last reported at 2020-Sep-13 14:25 UTC. Time now 2020-Sep-18 07:23 UTC.
Position N 01°55' E 104°30'.

Length 293 m; draft 8 m.

Type: Passenger vessel. MMSI: 247088200.

Date/timePositionNaut miles runAvg speedWind from/ knotsBaromVisibWave heightAir tempDewpointWater temp
2020-Sep-13 14:25N 01°55' E 104°30'  
2020-Sep-09 10:59S 05°26' E 107°00'1912.5
2020-Sep-09 09:30S 05°44' E 106°57'612.9
2020-Sep-09 09:00S 05°50' E 106°55'1110.9
2020-Sep-09 08:01S 06°01' E 106°53'2 1.7
2020-Sep-09 06:56S 06°03' E 106°52'0 0.0
2020-Sep-09 05:59S 06°03' E 106°52'1 0.3
2020-Sep-09 03:00S 06°04' E 106°52'136.8
2020-Sep-09 02:59S 06°03' E 106°52'0 0.0
2020-Sep-09 01:59S 06°03' E 106°52'452.4
2020-Sep-09 01:55S 06°06' E 106°53'4 3.8
2020-Sep-09 00:59S 06°03' E 106°52'0 0.0
2020-Sep-09 00:29S 06°03' E 106°52'0 0.0
2020-Sep-08 23:29S 06°03' E 106°52'0 0.0
2020-Sep-08 18:59S 06°03' E 106°52'0 0.0
2020-Sep-08 16:29S 06°03' E 106°52'0 0.0
2020-Sep-08 15:29S 06°03' E 106°52'0 0.0
2020-Sep-08 14:29S 06°03' E 106°52'0 0.0
2020-Sep-08 13:29S 06°03' E 106°52'0 0.0
2020-Sep-08 12:59S 06°03' E 106°52'3 0.7
2020-Sep-08 09:00S 06°02' E 106°55'0 0.0
2020-Sep-08 08:00S 06°02' E 106°55'0 0.0
2020-Sep-08 05:31S 06°02' E 106°55'0 0.0
2020-Sep-08 03:31S 06°02' E 106°55'0 0.0
2020-Sep-08 02:00S 06°02' E 106°55'0 0.0
2020-Sep-08 01:01S 06°02' E 106°55'7 3.6
2020-Sep-07 23:00S 05°54' E 106°54'5 9.1
2020-Sep-07 22:31S 05°50' E 106°56'13 8.9
2020-Sep-07 21:01S 05°37' E 106°59'9 8.8
2020-Sep-07 20:00S 05°28' E 106°59'60 8.5
2020-Sep-07 12:55S 04°33' E 107°22'  
Track history (hours):
 
Tides and Currents Weather Stations Pressure Air Temp Water Temp Dewpoint Dewpoint Depression Visibility Wind Speed Wind Dir Waves Ship Positions

Costa Mediterranea

Last reported at 2020-Sep-13 14:25 UTC. Time now 2020-Sep-18 07:23 UTC.
Position N 01°55' E 104°30'.

Length 293 m; draft 8 m.

Type: Passenger vessel. MMSI: 247088200.

Date/timePositionNaut miles runAvg speedWind from/ knotsBaromVisibWave heightAir tempDewpointWater temp
2020-Sep-13 14:25N 01°55' E 104°30'  
2020-Sep-09 10:59S 05°26' E 107°00'1912.5
2020-Sep-09 09:30S 05°44' E 106°57'612.9
2020-Sep-09 09:00S 05°50' E 106°55'1110.9
2020-Sep-09 08:01S 06°01' E 106°53'2 1.7
2020-Sep-09 06:56S 06°03' E 106°52'0 0.0
2020-Sep-09 05:59S 06°03' E 106°52'1 0.3
2020-Sep-09 03:00S 06°04' E 106°52'136.8
2020-Sep-09 02:59S 06°03' E 106°52'0 0.0
2020-Sep-09 01:59S 06°03' E 106°52'452.4
2020-Sep-09 01:55S 06°06' E 106°53'4 3.8
2020-Sep-09 00:59S 06°03' E 106°52'0 0.0
2020-Sep-09 00:29S 06°03' E 106°52'0 0.0
2020-Sep-08 23:29S 06°03' E 106°52'0 0.0
2020-Sep-08 18:59S 06°03' E 106°52'0 0.0
2020-Sep-08 16:29S 06°03' E 106°52'0 0.0
2020-Sep-08 15:29S 06°03' E 106°52'0 0.0
2020-Sep-08 14:29S 06°03' E 106°52'0 0.0
2020-Sep-08 13:29S 06°03' E 106°52'0 0.0
2020-Sep-08 12:59S 06°03' E 106°52'3 0.7
2020-Sep-08 09:00S 06°02' E 106°55'0 0.0
2020-Sep-08 08:00S 06°02' E 106°55'0 0.0
2020-Sep-08 05:31S 06°02' E 106°55'0 0.0
2020-Sep-08 03:31S 06°02' E 106°55'0 0.0
2020-Sep-08 02:00S 06°02' E 106°55'0 0.0
2020-Sep-08 01:01S 06°02' E 106°55'7 3.6
2020-Sep-07 23:00S 05°54' E 106°54'5 9.1
2020-Sep-07 22:31S 05°50' E 106°56'13 8.9
2020-Sep-07 21:01S 05°37' E 106°59'9 8.8
2020-Sep-07 20:00S 05°28' E 106°59'60 8.5
2020-Sep-07 12:55S 04°33' E 107°22'  

Dump ship's entire track history